Happy Valentine's Day! 

Flight Track Log - Related Links

Times and Time Zones

All times are in EDT time to prevent confusion due to time zone crossing. See the ASQ5025 flight status page for this flight to view local times or setup timezone preferences in your user account.


Time Position Orientation Groundspeed Altitude Reporting Facility
EDT Latitude Longitude Course Direction KTS MPH feet Rate Location/Type
Fri 10:13:13 AM 40.7667 -73.8500 153° Southeast 152 175 1,300  Level New York TRACON
Fri 10:14:07 AM 40.7167 -73.8167 153° Southeast 201 231 3,500 2,723 Climbing New York TRACON
Fri 10:15:12 AM 40.7500 -73.7667 49° Northeast 217 250 6,700 2,880 Climbing New York TRACON
Fri 10:16:12 AM 40.8167 -73.7167 30° Northeast 257 296 9,500 1,537 Climbing New York TRACON
Fri 10:17:56 AM 40.9267 -73.6597 21° North 263 303 10,900 1,909 Climbing Boston Center
Fri 10:19:08 AM 41.0200 -73.7056 340° North 268 308 15,100 2,773 Climbing Boston Center
Fri 10:20:08 AM 41.1028 -73.7594 334° Northwest 288 331 17,000 950 Climbing Boston Center
Fri 10:21:08 AM 41.1803 -73.7142 24° Northeast 298 343 17,000 800 Level Boston Center
Fri 10:22:08 AM 41.2500 -73.6217 45° Northeast 303 349 18,600 1,900 Climbing Boston Center
Fri 10:23:08 AM 41.3092 -73.5428 45° Northeast 315 362 20,800 2,050 Climbing Boston Center
Fri 10:24:08 AM 41.3747 -73.4553 45° Northeast 320 368 22,700 1,800 Climbing Boston Center
Fri 10:25:08 AM 41.4419 -73.3678 44° Northeast 331 381 24,400 1,150 Climbing Boston Center
Fri 10:26:08 AM 41.5136 -73.2661 47° Northeast 345 397 25,000 300 Climbing Boston Center
Fri 10:27:08 AM 41.5872 -73.1700 44° Northeast 345 397 25,000  Level Boston Center
Fri 10:28:08 AM 41.6647 -73.1097 30° Northeast 321 369 25,000  Level Boston Center
Fri 10:29:08 AM 41.7606 -73.1275 352° North 311 358 25,000  Level Boston Center
Fri 10:30:08 AM 41.8542 -73.1481 351° North 316 364 25,000  Level Boston Center
Fri 10:31:08 AM 41.9522 -73.1631 354° North 334 384 25,000  Level Boston Center
Fri 10:32:08 AM 42.0500 -73.1811 352° North 351 404 25,000  Level Boston Center
Fri 10:33:08 AM 42.1497 -73.1989 352° North 356 410 25,000  Level Boston Center
Fri 10:34:08 AM 42.2519 -73.2142 354° North 356 410 25,000  Level Boston Center
Fri 10:35:08 AM 42.3456 -73.2211 357° North 367 422 25,000  Level Boston Center
Fri 10:36:08 AM 42.4456 -73.2392 352° North 367 422 25,000  Level Boston Center
Fri 10:37:08 AM 42.5475 -73.2603 351° North 367 422 25,000  Level Boston Center
Fri 10:38:08 AM 42.6578 -73.2869 350° North 367 422 25,000  Level Boston Center
Fri 10:39:08 AM 42.7494 -73.3025 353° North 367 422 25,000  Level Boston Center
Fri 10:40:08 AM 42.8514 -73.3208 352° North 367 422 25,000  Level Boston Center
Fri 10:41:08 AM 42.9533 -73.3394 352° North 367 422 25,000  Level Boston Center
Fri 10:42:08 AM 43.0553 -73.3408 359° North 367 422 25,000  Level Boston Center
Fri 10:43:08 AM 43.1575 -73.3281 North 367 422 25,000 -300 Level Boston Center
Fri 10:44:08 AM 43.2578 -73.3125 North 367 422 24,400 -500 Descending Boston Center
Fri 10:45:08 AM 43.3539 -73.2994 North 356 410 24,000 -1,250 Descending Boston Center
Fri 10:46:08 AM 43.4497 -73.2836 North 322 371 21,900 -2,600 Descending Boston Center
Fri 10:47:08 AM 43.5414 -73.2736 North 322 371 18,800 -2,900 Descending Boston Center
Fri 10:48:08 AM 43.6353 -73.2606 North 328 377 16,100 -2,950 Descending Boston Center
Fri 10:49:08 AM 43.7292 -73.2503 North 328 377 12,900 -2,550 Descending Boston Center
Fri 10:50:08 AM 43.8211 -73.2372 North 328 377 11,000 -950 Descending Boston Center
Fri 10:51:08 AM 43.9128 -73.2269 North 328 377 11,000 -100 Level Boston Center
Fri 10:52:08 AM 44.0044 -73.2136 North 334 384 10,800 -450 Descending Boston Center
Fri 10:53:08 AM 44.0839 -73.2031 North 305 351 10,100 -1,273 Descending Boston Center
Fri 10:54:20 AM 44.1650 -73.2244 349° North 271 312 8,000 -1,773 Descending Boston Center
Fri 10:55:20 AM 44.2397 -73.2600 341° North 282 325 6,200 -1,700 Descending Boston Center
Fri 10:56:20 AM 44.3103 -73.2900 343° North 275 316 4,600 -1,400 Descending Boston Center
Fri 10:57:20 AM 44.3789 -73.3144 346° North 259 298 3,400 -950 Descending Boston Center
Fri 10:58:20 AM 44.4411 -73.3386 345° North 236 272 2,700 -700 Descending Boston Center
Fri 10:59:20 AM 44.4933 -73.3392 360° North 199 229 2,000 -350 Descending Boston Center
Fri 11:00:20 AM 44.5269 -73.2875 48° Northeast 169 194 2,000 -100 Level Boston Center
Fri 11:01:20 AM 44.5253 -73.2378 93° East 131 151 1,800 -450 Descending Boston Center
Fri 11:02:20 AM 44.5006 -73.1997 132° Southeast 104 120 1,100 11,100 Descending Boston Center
Fri 11:03:20 AM 44.4758 -73.1586 130° Southeast 131 151 24,000 11,450 Climbing Boston Center
Fri 11:04:20 AM 44.4694 -73.1528 147° Southeast 58 67 24,000  Level Boston Center
Fri 11:05:20 AM 44.4675 -73.1528 180° South 37 43 24,000  Level Boston Center
Fri 11:06:20 AM 44.4531 -73.1439 156° South 37 43 24,000  Level Boston Center

Login

Don't have an account? Register now (free) for customized features, flight alerts, and more!